Time;durP1;ratioP1;P1;durP2;ratioP2;P2;SDS_P1;SDS_P2;PMS_P1;PMS_P2;Temp;Humidity;BMP_temperature;BMP_pressure;BME280_temperature;BME280_humidity;BME280_pressure;Samples;Min_cycle;Max_cycle;Signal;HPM_P1;HPM_P2
2022/11/04 00:01:51;;;;;;;22.63;9.55;;;;;;;15.71;100.00;99990.66;5013362;28;20046;-88
2022/11/04 00:04:21;;;;;;;17.17;8.27;;;;;;;15.65;100.00;99978.97;5011116;28;20053;-87
2022/11/04 00:06:50;;;;;;;15.02;7.82;;;;;;;15.68;100.00;99974.75;5007597;28;20050;-90
2022/11/04 00:09:23;;;;;;;16.10;7.65;;;;;;;15.66;100.00;99960.50;5014763;28;20045;-89
2022/11/04 00:14:37;;;;;;;12.23;7.18;;;;;;;15.69;100.00;99948.81;5009835;28;20045;-87
2022/11/04 00:17:24;;;;;;;13.57;7.22;;;;;;;15.90;100.00;99942.53;5031653;28;20476;-88
2022/11/04 00:33:56;;;;;;;9.60;5.15;;;;;;;15.65;100.00;99893.47;5015621;28;20046;-86
2022/11/04 00:36:25;;;;;;;6.13;4.43;;;;;;;15.62;100.00;99885.88;5014256;28;20042;-85
2022/11/04 00:38:53;;;;;;;7.30;4.65;;;;;;;15.65;100.00;99885.19;5031294;28;20050;-87
2022/11/04 00:41:27;;;;;;;5.30;4.03;;;;;;;15.46;100.00;99885.63;5028913;28;20049;-87
2022/11/04 00:43:58;;;;;;;5.55;3.58;;;;;;;15.48;100.00;99875.06;5035579;28;20045;-87
2022/11/04 00:46:28;;;;;;;6.35;3.90;;;;;;;15.59;100.00;99858.94;5022201;28;20050;-86
2022/11/04 00:48:56;;;;;;;5.68;3.80;;;;;;;15.55;100.00;99855.25;5014085;28;20717;-86
2022/11/04 00:51:24;;;;;;;6.47;3.53;;;;;;;15.64;100.00;99850.50;5014031;28;20046;-85
2022/11/04 00:53:52;;;;;;;4.57;3.67;;;;;;;15.71;100.00;99856.31;5015066;28;20477;-85
2022/11/04 00:56:20;;;;;;;3.47;3.17;;;;;;;15.72;100.00;99843.31;5015159;28;20064;-87
2022/11/04 00:58:49;;;;;;;4.45;2.92;;;;;;;15.60;100.00;99841.28;5015067;28;20034;-86
2022/11/04 01:01:18;;;;;;;3.53;3.13;;;;;;;15.72;100.00;99843.31;5015012;28;20042;-86
2022/11/04 01:03:48;;;;;;;3.83;2.95;;;;;;;15.69;100.00;99839.28;5014351;28;20409;-86
2022/11/04 01:06:18;;;;;;;8.18;4.03;;;;;;;15.62;100.00;99827.97;5013835;28;20061;-86
2022/11/04 01:08:46;;;;;;;5.43;3.80;;;;;;;15.90;100.00;99837.69;5017286;28;20493;-86
2022/11/04 01:11:15;;;;;;;5.68;3.72;;;;;;;15.76;100.00;99827.72;5030037;28;20042;-85
2022/11/04 01:13:43;;;;;;;8.88;4.53;;;;;;;16.14;100.00;99819.72;5014892;28;20049;-84
2022/11/04 01:16:11;;;;;;;7.45;4.30;;;;;;;15.96;100.00;99814.31;5008333;28;20041;-86
2022/11/04 01:18:40;;;;;;;9.80;4.85;;;;;;;15.95;100.00;99812.72;5015980;28;20045;-88
2022/11/04 01:21:11;;;;;;;6.55;4.20;;;;;;;15.91;100.00;99803.44;5011120;28;20128;-87
2022/11/04 01:23:41;;;;;;;5.53;3.95;;;;;;;15.90;100.00;99799.06;5006508;28;20408;-87
2022/11/04 01:26:21;;;;;;;5.93;4.40;;;;;;;15.87;100.00;99791.50;5014907;28;20034;-86
2022/11/04 01:28:51;;;;;;;8.18;3.95;;;;;;;15.83;100.00;99783.03;5019564;28;20046;-83
2022/11/04 01:31:21;;;;;;;5.50;4.15;;;;;;;15.77;100.00;99782.44;5010981;28;20049;-85
2022/11/04 01:33:50;;;;;;;4.97;3.63;;;;;;;15.78;100.00;99778.53;5004717;28;20402;-88
2022/11/04 01:36:19;;;;;;;6.43;4.28;;;;;;;15.82;100.00;99776.72;5007853;28;20477;-87
2022/11/04 01:38:48;;;;;;;7.45;4.55;;;;;;;15.95;100.00;99771.31;5001705;28;20630;-86
2022/11/04 01:41:22;;;;;;;7.90;4.93;;;;;;;15.95;100.00;99768.56;5014288;28;20041;-85
2022/11/04 01:43:52;;;;;;;6.57;4.43;;;;;;;15.92;100.00;99769.19;5029366;28;20046;-87
2022/11/04 01:46:55;;;;;;;8.10;5.55;;;;;;;15.95;100.00;99758.34;5016681;28;20041;-86
2022/11/04 01:49:35;;;;;;;6.13;4.70;;;;;;;15.97;100.00;99757.97;4934661;29;20423;-85
2022/11/04 01:52:18;;;;;;;9.27;5.35;;;;;;;16.06;100.00;99752.41;4990383;28;20038;-86
2022/11/04 01:54:49;;;;;;;7.72;5.47;;;;;;;16.09;100.00;99747.00;4994511;28;20407;-86
2022/11/04 01:57:24;;;;;;;8.18;5.38;;;;;;;15.87;100.00;99744.59;4994465;28;20788;-84
2022/11/04 01:59:52;;;;;;;8.95;5.45;;;;;;;15.86;100.00;99727.22;5002217;28;20402;-85
2022/11/04 02:02:23;;;;;;;9.48;5.65;;;;;;;15.91;100.00;99728.94;4994110;28;20433;-86
2022/11/04 02:04:51;;;;;;;7.88;5.32;;;;;;;15.69;100.00;99723.44;5000018;28;20053;-82
2022/11/04 02:07:20;;;;;;;8.38;5.65;;;;;;;15.89;100.00;99709.97;5019150;28;20046;-83
2022/11/04 02:09:48;;;;;;;11.43;6.47;;;;;;;16.02;100.00;99701.81;5001958;28;20047;-81
2022/11/04 02:15:03;;;;;;;11.07;7.05;;;;;;;15.77;100.00;99669.34;5003271;28;20057;-82
2022/11/04 02:18:06;;;;;;;12.80;7.15;;;;;;;15.99;100.00;99670.97;4999584;28;20053;-85
2022/11/04 02:21:04;;;;;;;9.75;6.47;;;;;;;15.79;100.00;99667.06;4972903;28;20061;-86
2022/11/04 02:24:00;;;;;;;10.77;6.93;;;;;;;15.74;100.00;99656.22;4993674;28;20047;-82
2022/11/04 02:26:49;;;;;;;10.82;7.03;;;;;;;15.92;100.00;99642.28;4993740;28;20042;-84
2022/11/04 02:29:42;;;;;;;12.30;7.28;;;;;;;15.85;100.00;99648.34;5009796;28;20050;-84
2022/11/04 02:32:12;;;;;;;18.00;8.73;;;;;;;16.07;100.00;99643.63;4993675;28;20062;-84
2022/11/04 02:35:06;;;;;;;14.80;7.88;;;;;;;16.04;100.00;99636.81;4993482;28;20052;-83
2022/11/04 02:37:50;;;;;;;10.35;6.88;;;;;;;16.08;100.00;99634.22;5012824;28;20060;-83
2022/11/04 02:41:01;;;;;;;15.60;8.77;;;;;;;16.22;100.00;99625.59;5025847;28;20042;-82
2022/11/04 02:43:47;;;;;;;11.32;7.53;;;;;;;16.24;100.00;99617.81;5005834;28;20050;-86
2022/11/04 02:46:30;;;;;;;11.20;7.50;;;;;;;16.30;100.00;99610.91;5013103;28;20054;-82
2022/11/04 02:49:09;;;;;;;11.93;7.45;;;;;;;16.26;100.00;99607.22;5013297;28;20050;-84
2022/11/04 02:51:47;;;;;;;14.18;8.68;;;;;;;16.45;100.00;99597.56;5011991;28;20065;-84
2022/11/04 02:54:32;;;;;;;11.68;7.28;;;;;;;16.39;100.00;99592.28;5000890;28;20045;-83
2022/11/04 02:57:03;;;;;;;15.15;7.47;;;;;;;16.44;100.00;99594.03;5012363;28;20064;-83
2022/11/04 02:59:46;;;;;;;10.93;7.93;;;;;;;16.44;100.00;99584.91;5019881;28;20072;-83
2022/11/04 03:02:31;;;;;;;12.38;7.07;;;;;;;16.43;100.00;99577.78;5015479;28;20061;-81
2022/11/04 03:05:03;;;;;;;13.27;7.45;;;;;;;16.36;100.00;99570.06;5013130;28;20042;-82
2022/11/04 03:07:35;;;;;;;10.82;6.68;;;;;;;16.43;100.00;99555.69;4995017;28;20034;-83
2022/11/04 03:10:10;;;;;;;12.45;6.45;;;;;;;16.27;100.00;99550.06;4994305;28;20076;-85
2022/11/04 03:13:00;;;;;;;10.23;6.50;;;;;;;16.18;100.00;99545.44;5015104;28;20038;-87
2022/11/04 03:15:33;;;;;;;12.15;6.82;;;;;;;16.31;100.00;99537.16;4998739;28;20405;-84
2022/11/04 03:18:22;;;;;;;9.60;6.53;;;;;;;16.30;100.00;99536.38;4999546;28;20042;-84
2022/11/04 03:20:51;;;;;;;10.93;7.32;;;;;;;16.49;100.00;99521.19;4998364;28;20410;-82
2022/11/04 03:23:19;;;;;;;10.43;6.80;;;;;;;16.24;100.00;99507.38;4997010;28;20061;-83
2022/11/04 03:25:53;;;;;;;9.25;6.50;;;;;;;16.17;100.00;99515.44;4995833;28;20054;-85
2022/11/04 03:28:29;;;;;;;12.55;7.00;;;;;;;16.27;100.00;99498.41;5000661;28;20054;-81
2022/11/04 03:31:02;;;;;;;8.60;6.25;;;;;;;16.31;100.00;99495.75;4998935;28;20050;-83
2022/11/04 03:33:45;;;;;;;13.35;6.53;;;;;;;16.27;100.00;99503.13;4992813;28;20421;-83
2022/11/04 03:36:13;;;;;;;11.43;6.90;;;;;;;16.15;100.00;99506.69;4992334;28;20047;-84
2022/11/04 03:38:41;;;;;;;12.02;7.97;;;;;;;16.43;100.00;99504.03;5013156;28;20053;-82
2022/11/04 03:41:18;;;;;;;12.90;7.25;;;;;;;16.31;100.00;99510.38;5015760;28;20077;-82
2022/11/04 03:43:46;;;;;;;12.32;7.30;;;;;;;16.47;100.00;99501.41;5011280;28;20038;-80
2022/11/04 03:46:14;;;;;;;14.18;6.75;;;;;;;16.50;100.00;99495.19;5010435;28;20072;-83
2022/11/04 03:48:45;;;;;;;10.77;6.32;;;;;;;16.48;100.00;99494.72;5012160;28;20408;-82
2022/11/04 03:51:13;;;;;;;16.02;6.95;;;;;;;16.73;100.00;99497.44;5021543;28;20065;-83
2022/11/04 03:53:41;;;;;;;11.55;7.28;;;;;;;16.69;100.00;99497.34;5011832;28;20069;-81
2022/11/04 03:56:27;;;;;;;14.35;6.55;;;;;;;16.61;100.00;99490.78;5010994;28;20046;-83
2022/11/04 03:58:57;;;;;;;13.07;7.43;;;;;;;16.79;100.00;99490.53;5013593;28;20041;-82
2022/11/04 04:02:00;;;;;;;11.77;7.20;;;;;;;16.62;100.00;99488.84;5019983;28;20508;-82
2022/11/04 04:04:33;;;;;;;12.40;7.45;;;;;;;16.45;100.00;99482.41;5002977;28;20050;-83
2022/11/04 04:07:12;;;;;;;11.55;7.13;;;;;;;16.32;100.00;99489.91;5011915;28;20049;-84
2022/11/04 04:09:48;;;;;;;13.10;7.18;;;;;;;16.38;100.00;99482.19;5018450;28;20365;-83
2022/11/04 04:12:39;;;;;;;13.43;7.47;;;;;;;16.43;100.00;99486.69;5026579;28;20409;-82
2022/11/04 04:15:17;;;;;;;15.13;8.80;;;;;;;16.45;100.00;99481.59;5011955;28;20046;-80
2022/11/04 04:17:54;;;;;;;14.65;8.13;;;;;;;16.58;100.00;99482.41;5011760;28;20409;-79
2022/11/04 04:20:26;;;;;;;12.25;8.85;;;;;;;16.47;100.00;99488.38;5021828;28;20057;-80
2022/11/04 04:28:56;;;;;;;11.98;7.68;;;;;;;16.53;100.00;99486.22;5011508;28;20046;-80
2022/11/04 04:34:13;;;;;;;13.63;8.77;;;;;;;16.56;100.00;99463.41;5011675;28;20046;-82
2022/11/04 04:37:14;;;;;;;13.57;8.43;;;;;;;16.41;100.00;99464.13;5023072;28;20049;-82
2022/11/04 04:45:25;;;;;;;15.57;9.68;;;;;;;16.53;100.00;99456.63;5011324;28;20070;-82
2022/11/04 04:47:53;;;;;;;14.88;8.98;;;;;;;16.70;100.00;99459.47;5035583;28;20046;-81
2022/11/04 04:50:22;;;;;;;16.42;8.95;;;;;;;16.76;100.00;99455.31;5013630;28;20415;-81
2022/11/04 04:52:53;;;;;;;15.13;8.57;;;;;;;16.93;100.00;99446.72;5014805;28;20486;-81
2022/11/04 04:55:21;;;;;;;15.70;9.38;;;;;;;16.77;100.00;99443.91;5011302;28;20042;-83
2022/11/04 04:57:49;;;;;;;14.20;9.10;;;;;;;16.60;100.00;99439.47;5016639;28;20048;-84
2022/11/04 05:00:20;;;;;;;14.43;8.35;;;;;;;16.48;100.00;99442.25;5016444;28;20045;-83
2022/11/04 05:02:48;;;;;;;15.55;9.60;;;;;;;16.53;100.00;99430.97;5013479;28;20053;-82
2022/11/04 05:05:17;;;;;;;13.88;9.32;;;;;;;16.46;100.00;99426.03;5014135;28;20186;-83
2022/11/04 05:07:45;;;;;;;13.45;8.73;;;;;;;16.23;100.00;99440.31;5015042;28;20052;-83
2022/11/04 05:10:14;;;;;;;16.15;9.63;;;;;;;16.29;100.00;99438.16;5015548;28;20034;-83
2022/11/04 05:15:30;;;;;;;15.98;9.55;;;;;;;16.30;100.00;99425.94;5014578;28;20049;-83
2022/11/04 05:18:00;;;;;;;14.43;9.35;;;;;;;16.31;100.00;99423.97;5014774;28;20050;-83
2022/11/04 05:20:29;;;;;;;14.13;9.32;;;;;;;16.43;100.00;99425.94;5018004;28;20037;-82
2022/11/04 05:22:57;;;;;;;17.83;9.52;;;;;;;16.36;100.00;99426.50;5014639;28;20038;-83
2022/11/04 05:25:24;;;;;;;18.48;10.65;;;;;;;16.44;100.00;99420.06;5019991;28;20506;-82
2022/11/04 05:27:52;;;;;;;15.55;9.68;;;;;;;16.56;100.00;99416.47;5016046;28;20113;-82
2022/11/04 05:30:20;;;;;;;18.77;9.57;;;;;;;16.55;100.00;99405.75;5028764;28;20041;-83
2022/11/04 05:32:48;;;;;;;18.77;9.82;;;;;;;16.34;100.00;99418.59;5019199;28;20050;-82
2022/11/04 05:35:16;;;;;;;16.00;8.93;;;;;;;16.62;100.00;99426.09;5012781;28;20045;-82
2022/11/04 05:37:44;;;;;;;19.17;9.80;;;;;;;16.72;100.00;99419.28;5005920;28;20046;-78
2022/11/04 05:40:12;;;;;;;19.35;10.15;;;;;;;16.67;100.00;99414.00;5024937;28;20049;-79
2022/11/04 05:42:40;;;;;;;17.13;9.75;;;;;;;16.70;100.00;99404.22;5014109;28;20158;-79
2022/11/04 05:45:09;;;;;;;14.77;9.43;;;;;;;16.55;100.00;99401.06;5014117;28;20053;-80
2022/11/04 05:47:37;;;;;;;17.60;9.98;;;;;;;16.81;100.00;99405.31;5014159;28;20049;-81
2022/11/04 05:50:05;;;;;;;16.83;8.95;;;;;;;16.81;100.00;99397.03;5021404;28;20043;-81
2022/11/04 05:52:33;;;;;;;14.07;8.75;;;;;;;16.79;100.00;99391.06;5023683;28;20037;-81
2022/11/04 05:55:01;;;;;;;17.05;9.57;;;;;;;16.86;100.00;99391.25;5029503;28;20397;-81
2022/11/04 05:57:29;;;;;;;14.52;9.25;;;;;;;16.95;100.00;99398.63;5009188;28;20042;-81
2022/11/04 05:59:58;;;;;;;14.15;9.13;;;;;;;16.83;100.00;99397.50;5007117;28;20045;-82
2022/11/04 06:02:26;;;;;;;13.02;8.98;;;;;;;16.84;100.00;99393.59;5014576;28;20041;-84
2022/11/04 06:04:54;;;;;;;16.42;9.38;;;;;;;16.71;100.00;99387.28;5013744;28;20053;-82
2022/11/04 06:07:22;;;;;;;15.32;9.40;;;;;;;16.68;100.00;99403.78;5013408;28;20041;-84
2022/11/04 06:09:49;;;;;;;19.88;9.63;;;;;;;16.87;100.00;99390.09;5008214;28;20358;-85
2022/11/04 06:12:18;;;;;;;12.57;8.27;;;;;;;16.83;100.00;99383.69;5025380;28;20056;-84
2022/11/04 06:14:45;;;;;;;12.77;8.88;;;;;;;16.87;100.00;99392.09;5022706;28;20129;-84
2022/11/04 06:17:19;;;;;;;18.30;9.48;;;;;;;16.71;100.00;99394.78;5023304;28;20485;-83
2022/11/04 06:19:48;;;;;;;22.53;8.83;;;;;;;16.68;100.00;99401.81;5020230;28;20428;-84
2022/11/04 06:22:18;;;;;;;14.10;9.57;;;;;;;16.71;100.00;99417.69;5013787;28;20042;-85
2022/11/04 06:24:46;;;;;;;15.00;8.98;;;;;;;16.75;100.00;99420.53;5013445;28;20041;-86
2022/11/04 06:27:21;;;;;;;17.00;9.98;;;;;;;16.53;100.00;99417.16;5000965;28;20053;-87
2022/11/04 06:29:51;;;;;;;18.67;9.60;;;;;;;16.36;100.00;99413.53;5011249;28;20057;-90
2022/11/04 06:32:19;;;;;;;18.30;10.02;;;;;;;16.44;100.00;99397.97;4997214;28;20050;-88
2022/11/04 06:34:47;;;;;;;16.98;10.85;;;;;;;16.54;100.00;99399.44;5009589;28;20393;-83
2022/11/04 06:37:15;;;;;;;21.70;10.65;;;;;;;16.50;100.00;99406.81;4996569;28;20501;-83
2022/11/04 06:39:43;;;;;;;17.58;11.68;;;;;;;16.52;100.00;99410.00;5006455;28;20057;-79
2022/11/04 06:42:10;;;;;;;21.23;12.00;;;;;;;16.61;100.00;99423.69;5013135;28;20073;-83
2022/11/04 06:44:38;;;;;;;21.08;11.05;;;;;;;16.50;100.00;99435.25;5012894;28;20042;-83
2022/11/04 06:47:07;;;;;;;20.75;10.60;;;;;;;16.29;100.00;99440.91;5012795;28;20057;-83
2022/11/04 06:49:34;;;;;;;16.63;9.48;;;;;;;16.23;100.00;99445.84;5028547;28;20248;-83
2022/11/04 06:52:02;;;;;;;17.23;8.90;;;;;;;16.36;100.00;99460.47;5013063;28;20046;-82
2022/11/04 06:54:30;;;;;;;20.58;8.65;;;;;;;16.42;100.00;99465.75;5028042;28;20049;-82
2022/11/04 06:56:58;;;;;;;12.18;7.90;;;;;;;16.37;100.00;99464.81;5012884;28;20461;-84
2022/11/04 06:59:26;;;;;;;10.95;5.72;;;;;;;16.29;100.00;99457.47;5011568;28;20405;-83
2022/11/04 07:01:54;;;;;;;9.80;6.28;;;;;;;16.08;100.00;99477.72;5011601;28;20049;-82
2022/11/04 07:04:22;;;;;;;7.95;4.80;;;;;;;15.92;100.00;99491.38;5011419;28;20045;-82
2022/11/04 07:06:50;;;;;;;8.27;4.72;;;;;;;15.90;100.00;99496.41;5012709;28;20504;-82
2022/11/04 07:09:18;;;;;;;5.22;3.97;;;;;;;15.66;100.00;99495.22;5011376;28;20038;-83
2022/11/04 07:11:46;;;;;;;4.60;3.45;;;;;;;15.57;100.00;99494.50;5012753;28;20423;-82
2022/11/04 07:14:14;;;;;;;3.40;2.60;;;;;;;15.45;100.00;99509.06;5012494;28;20042;-83
2022/11/04 07:16:42;;;;;;;3.28;2.80;;;;;;;15.31;100.00;99514.88;5012744;28;20053;-83
2022/11/04 07:19:10;;;;;;;2.05;1.85;;;;;;;15.14;100.00;99515.81;5027505;28;20493;-82
2022/11/04 07:21:38;;;;;;;1.40;1.30;;;;;;;14.92;100.00;99512.25;5012515;28;20052;-82
2022/11/04 07:24:06;;;;;;;3.08;1.67;;;;;;;14.91;100.00;99513.41;5011290;28;20425;-82
2022/11/04 07:26:34;;;;;;;1.42;1.20;;;;;;;14.88;100.00;99530.59;5012268;28;20504;-83
2022/11/04 07:29:02;;;;;;;1.67;1.58;;;;;;;14.70;100.00;99555.47;5027397;28;20046;-81
2022/11/04 07:31:30;;;;;;;1.67;1.45;;;;;;;14.72;100.00;99572.44;4998820;28;20469;-82
2022/11/04 07:33:58;;;;;;;1.13;1.13;;;;;;;14.65;100.00;99583.19;5011370;28;20054;-83
2022/11/04 07:36:25;;;;;;;1.13;0.80;;;;;;;14.65;100.00;99574.94;4998538;28;20077;-81
2022/11/04 07:38:53;;;;;;;2.40;0.95;;;;;;;14.56;100.00;99574.19;5027359;28;20046;-83
2022/11/04 07:41:21;;;;;;;1.15;0.73;;;;;;;14.47;100.00;99580.50;5012303;28;20047;-82
2022/11/04 07:43:50;;;;;;;1.00;0.90;;;;;;;14.49;100.00;99585.69;5011911;28;20056;-85
2022/11/04 07:46:21;;;;;;;0.60;0.60;;;;;;;14.49;100.00;99577.44;5012300;28;20049;-89
2022/11/04 07:48:49;;;;;;;0.95;0.70;;;;;;;14.33;100.00;99539.44;5011069;28;20045;-89
2022/11/04 07:51:20;;;;;;;0.43;0.22;;;;;;;14.45;100.00;99563.53;4991275;28;20512;-90
2022/11/04 07:53:49;;;;;;;0.50;0.40;;;;;;;14.54;100.00;99552.47;4999564;28;20042;-90
2022/11/04 07:56:22;;;;;;;0.47;0.47;;;;;;;14.56;100.00;99554.91;4995162;28;20042;-89
2022/11/04 07:58:51;;;;;;;1.40;0.73;;;;;;;14.68;100.00;99557.75;5010813;28;20042;-90
2022/11/04 08:01:22;;;;;;;4.88;1.23;;;;;;;14.68;99.15;99505.44;5004054;28;20050;-89
2022/11/04 08:03:50;;;;;;;2.38;2.15;;;;;;;14.73;99.73;99452.09;5007080;28;20049;-89
2022/11/04 08:06:19;;;;;;;1.48;1.33;;;;;;;14.63;100.00;99412.00;5010094;28;20053;-89
2022/11/04 08:08:47;;;;;;;1.52;0.98;;;;;;;14.82;100.00;99463.91;5010798;28;20397;-89
2022/11/04 08:11:18;;;;;;;3.00;0.82;;;;;;;15.07;100.00;99493.50;5026904;28;20037;-89
2022/11/04 08:13:46;;;;;;;0.77;0.77;;;;;;;15.59;100.00;99492.19;5010733;28;20053;-88
2022/11/04 08:16:17;;;;;;;0.77;0.77;;;;;;;15.99;97.46;99488.06;5010509;28;20034;-88
2022/11/04 08:18:47;;;;;;;1.00;0.60;;;;;;;16.16;95.60;99477.94;5011789;28;20058;-87
2022/11/04 08:21:15;;;;;;;1.33;0.82;;;;;;;16.68;92.46;99470.06;5009449;28;20049;-87
2022/11/04 08:23:44;;;;;;;1.08;0.77;;;;;;;17.05;90.88;99486.56;5011572;28;20516;-86
2022/11/04 08:26:17;;;;;;;0.50;0.50;;;;;;;17.53;88.45;99506.06;5011904;28;20046;-87
2022/11/04 08:28:45;;;;;;;0.63;0.57;;;;;;;17.70;86.48;99516.00;5009459;28;20047;-84
2022/11/04 08:31:17;;;;;;;12.82;1.50;;;;;;;17.79;86.89;99524.13;5011800;28;20398;-80
2022/11/04 08:33:46;;;;;;;12.05;1.08;;;;;;;17.69;85.28;99519.91;5011495;28;20057;-80
2022/11/04 08:36:20;;;;;;;0.17;0.17;;;;;;;17.07;83.16;99528.50;4998643;28;20406;-81
2022/11/04 08:38:48;;;;;;;0.35;0.20;;;;;;;16.66;82.50;99520.94;4998828;28;20053;-80
2022/11/04 08:41:18;;;;;;;1.02;0.20;;;;;;;16.88;84.50;99531.84;5015301;28;20060;-80
2022/11/04 08:43:47;;;;;;;2.85;0.20;;;;;;;16.79;82.60;99543.03;5015323;28;20400;-78
2022/11/04 08:46:15;;;;;;;0.00;0.00;;;;;;;16.33;78.88;99541.19;5015245;28;20064;-80
2022/11/04 08:48:43;;;;;;;0.10;0.10;;;;;;;16.12;82.10;99527.50;5015055;28;20053;-81
2022/11/04 08:51:14;;;;;;;0.60;0.30;;;;;;;15.87;82.53;99515.59;5015323;28;20050;-79
2022/11/04 08:53:42;;;;;;;0.10;0.10;;;;;;;16.07;81.26;99533.22;5015123;28;20042;-80
2022/11/04 08:56:15;;;;;;;0.10;0.10;;;;;;;16.11;80.19;99512.91;5015072;28;20046;-80
2022/11/04 08:58:43;;;;;;;0.38;0.20;;;;;;;15.89;80.98;99527.09;5014838;28;20420;-81
2022/11/04 09:01:11;;;;;;;0.32;0.32;;;;;;;16.20;81.01;99515.56;5014784;28;20053;-80
2022/11/04 09:03:40;;;;;;;0.47;0.20;;;;;;;16.36;81.16;99510.16;5013603;28;20065;-79
2022/11/04 09:06:12;;;;;;;1.55;0.28;;;;;;;16.63;79.73;99520.84;5015041;28;20046;-80
2022/11/04 09:08:42;;;;;;;1.10;0.22;;;;;;;16.68;79.17;99528.88;5029845;28;20064;-79
2022/11/04 09:11:12;;;;;;;0.10;0.10;;;;;;;16.65;76.87;99530.38;5014779;28;20034;-79
2022/11/04 09:13:40;;;;;;;1.27;0.25;;;;;;;16.73;78.43;99530.59;5013952;28;20049;-80
2022/11/04 09:16:10;;;;;;;0.30;0.28;;;;;;;16.67;77.08;99521.72;5014647;28;20038;-80
2022/11/04 09:18:38;;;;;;;0.20;0.17;;;;;;;16.77;74.92;99520.47;5013729;28;20042;-80
2022/11/04 09:21:08;;;;;;;0.10;0.10;;;;;;;17.08;76.83;99518.22;5014676;28;20049;-79
2022/11/04 09:23:37;;;;;;;1.35;0.20;;;;;;;17.00;72.76;99522.69;5014396;28;20064;-79
2022/11/04 09:26:11;;;;;;;0.65;0.40;;;;;;;17.23;74.53;99525.78;5014484;28;20045;-80
2022/11/04 09:28:39;;;;;;;0.20;0.20;;;;;;;17.35;72.96;99521.38;5012925;28;20049;-80
2022/11/04 09:31:13;;;;;;;0.28;0.28;;;;;;;17.37;71.36;99528.16;5014250;28;20037;-81
2022/11/04 09:33:41;;;;;;;;;;;;;;;17.55;72.07;99527.84;5014815;28;20052;-81
2022/11/04 09:36:10;;;;;;;0.10;0.10;;;;;;;17.66;70.86;99517.88;5002119;28;19941;-80
2022/11/04 09:38:40;;;;;;;0.63;0.30;;;;;;;17.77;68.85;99529.22;5013077;28;20052;-80
2022/11/04 09:41:41;;;;;;;0.32;0.25;;;;;;;17.62;68.83;99530.81;5014339;28;20396;-80
2022/11/04 09:44:32;;;;;;;0.30;0.30;;;;;;;17.36;70.34;99528.50;5010270;28;20418;-79
2022/11/04 09:47:21;;;;;;;0.50;0.28;;;;;;;17.68;68.15;99523.84;5014224;28;20030;-80
2022/11/04 09:49:54;;;;;;;0.25;0.13;;;;;;;17.66;67.57;99530.91;5013952;28;20052;-80
2022/11/04 09:52:37;;;;;;;0.55;0.28;;;;;;;18.00;67.22;99523.09;5013619;28;20046;-80
2022/11/04 09:55:19;;;;;;;2.03;0.40;;;;;;;18.01;67.09;99527.47;5012868;28;20065;-80
2022/11/04 09:57:57;;;;;;;3.13;0.35;;;;;;;17.99;64.41;99527.03;5013855;28;20050;-81
2022/11/04 10:00:29;;;;;;;0.20;0.20;;;;;;;17.37;66.22;99533.69;5013968;28;20482;-80
2022/11/04 10:03:35;;;;;;;4.47;0.30;;;;;;;17.19;69.34;99542.28;5013719;28;20465;-79
2022/11/04 10:06:10;;;;;;;0.45;0.30;;;;;;;17.10;68.15;99535.28;4994866;28;20054;-80
2022/11/04 10:09:04;;;;;;;1.38;0.85;;;;;;;16.93;69.73;99535.16;5013848;28;20042;-81
2022/11/04 10:12:00;;;;;;;0.32;0.30;;;;;;;16.88;70.55;99543.72;5003742;28;20044;-80
2022/11/04 10:15:06;;;;;;;1.73;0.30;;;;;;;16.71;70.36;99541.19;5011823;28;20072;-79
2022/11/04 10:17:42;;;;;;;0.77;0.43;;;;;;;16.62;70.69;99546.84;5013392;28;20363;-79
2022/11/04 10:20:34;;;;;;;0.22;0.22;;;;;;;16.56;71.99;99545.47;5013610;28;20046;-79
2022/11/04 10:23:32;;;;;;;0.20;0.20;;;;;;;16.48;72.88;99545.22;5001084;28;20061;-80
2022/11/04 10:26:26;;;;;;;1.13;0.82;;;;;;;16.48;72.35;99545.22;5028109;28;20058;-80
2022/11/04 10:29:01;;;;;;;0.82;0.20;;;;;;;16.45;72.42;99542.34;5007895;28;20054;-79
2022/11/04 10:31:29;;;;;;;1.77;0.38;;;;;;;16.18;74.26;99533.63;5013270;28;20045;-80
2022/11/04 10:34:02;;;;;;;0.65;0.50;;;;;;;16.15;74.29;99535.09;5013604;28;20053;-79
2022/11/04 10:36:30;;;;;;;0.50;0.38;;;;;;;16.24;72.93;99543.28;4999168;28;20047;-80
2022/11/04 10:39:02;;;;;;;0.63;0.50;;;;;;;16.14;73.68;99538.19;5013129;28;20042;-79
2022/11/04 10:41:36;;;;;;;2.00;0.40;;;;;;;15.96;75.05;99538.41;5013149;28;20057;-79
2022/11/04 10:44:07;;;;;;;0.60;0.50;;;;;;;15.97;76.62;99531.72;5013312;28;20053;-79
2022/11/04 10:47:00;;;;;;;1.13;0.50;;;;;;;15.91;76.15;99533.88;5013545;28;20053;-79
2022/11/04 10:50:01;;;;;;;0.38;0.28;;;;;;;15.89;78.74;99533.41;5013329;28;20508;-79
2022/11/04 10:52:49;;;;;;;0.90;0.40;;;;;;;15.94;79.14;99533.22;5014351;28;20053;-79
2022/11/04 10:55:23;;;;;;;0.95;0.70;;;;;;;16.06;77.87;99531.63;5013052;28;20497;-79
2022/11/04 10:57:56;;;;;;;1.67;0.77;;;;;;;16.30;77.33;99530.03;5028112;28;20061;-79
2022/11/04 11:00:38;;;;;;;0.88;0.75;;;;;;;16.37;75.99;99542.13;5012855;28;20050;-79
2022/11/04 11:03:33;;;;;;;0.93;0.90;;;;;;;16.41;76.00;99533.94;5012233;28;20050;-79
2022/11/04 11:06:34;;;;;;;1.17;0.88;;;;;;;16.65;76.32;99530.38;5012981;28;20053;-79
2022/11/04 11:09:17;;;;;;;0.52;0.50;;;;;;;16.77;73.46;99546.13;4991025;28;20057;-79
2022/11/04 11:11:49;;;;;;;0.60;0.50;;;;;;;16.76;72.65;99532.66;5012907;28;20054;-79
2022/11/04 11:14:29;;;;;;;0.47;0.47;;;;;;;17.06;71.00;99535.97;5012767;28;20052;-80
2022/11/04 11:17:15;;;;;;;0.30;0.30;;;;;;;17.27;69.78;99536.94;5012763;28;20373;-80
2022/11/04 11:19:49;;;;;;;1.45;0.63;;;;;;;17.25;71.34;99525.44;5000122;28;20386;-80
2022/11/04 11:22:35;;;;;;;0.63;0.45;;;;;;;17.28;69.61;99533.84;5012769;28;20505;-80
2022/11/04 11:25:28;;;;;;;0.90;0.20;;;;;;;17.24;67.19;99530.16;5012387;28;20056;-80
2022/11/04 11:28:00;;;;;;;0.40;0.40;;;;;;;17.91;64.80;99526.03;5012513;28;20042;-81
2022/11/04 11:30:35;;;;;;;0.73;0.30;;;;;;;18.11;61.97;99526.16;5027514;28;20073;-81
2022/11/04 11:33:12;;;;;;;0.40;0.30;;;;;;;18.45;59.90;99512.72;5012142;28;20038;-81
2022/11/04 11:35:55;;;;;;;0.30;0.30;;;;;;;18.83;61.55;99520.69;5003943;28;20423;-81
2022/11/04 11:38:33;;;;;;;0.20;0.20;;;;;;;18.74;58.60;99521.69;5008996;28;20069;-81
2022/11/04 11:41:12;;;;;;;0.00;0.00;;;;;;;18.88;59.63;99509.31;5012489;28;20055;-81
2022/11/04 11:43:59;;;;;;;0.10;0.10;;;;;;;18.96;60.20;99511.06;5012010;28;20493;-81
2022/11/04 11:46:30;;;;;;;0.60;0.20;;;;;;;19.04;55.99;99498.19;5012139;28;20053;-81
2022/11/04 11:49:01;;;;;;;0.22;0.20;;;;;;;18.95;57.63;99501.16;5011977;28;20045;-81
2022/11/04 11:51:37;;;;;;;1.75;0.20;;;;;;;18.93;56.72;99507.03;5011986;28;20057;-81
2022/11/04 11:54:36;;;;;;;0.25;0.20;;;;;;;19.06;54.66;99515.25;5012016;28;20042;-81
2022/11/04 11:57:23;;;;;;;0.20;0.10;;;;;;;19.21;54.56;99527.44;5003198;28;20413;-80
2022/11/04 12:00:11;;;;;;;0.00;0.00;;;;;;;19.17;53.37;99519.06;5010934;28;20053;-81
2022/11/04 12:03:16;;;;;;;0.00;0.00;;;;;;;19.47;54.86;99506.56;5001246;28;20044;-81
2022/11/04 12:06:13;;;;;;;0.00;0.00;;;;;;;19.54;52.07;99511.44;5011640;28;20057;-81
2022/11/04 12:08:58;;;;;;;0.52;0.10;;;;;;;19.52;54.40;99502.69;5011734;28;20046;-80
2022/11/04 12:11:54;;;;;;;0.03;0.03;;;;;;;19.51;52.17;99507.47;5011999;28;20045;-81
2022/11/04 12:14:31;;;;;;;0.08;0.08;;;;;;;19.24;50.97;99506.50;5013507;28;20477;-81
2022/11/04 12:17:02;;;;;;;0.32;0.10;;;;;;;19.32;51.75;99508.28;5015854;28;20403;-82
2022/11/04 12:19:54;;;;;;;0.10;0.10;;;;;;;19.37;49.62;99502.44;5015550;28;20049;-81
2022/11/04 12:22:34;;;;;;;0.10;0.10;;;;;;;19.33;50.66;99501.53;5015645;28;20065;-81
2022/11/04 12:25:13;;;;;;;0.00;0.00;;;;;;;19.32;50.82;99500.72;5014408;28;20060;-81
2022/11/04 12:28:09;;;;;;;0.10;0.10;;;;;;;19.29;51.61;99503.44;5015541;28;20058;-81
2022/11/04 12:30:58;;;;;;;0.10;0.10;;;;;;;19.30;50.49;99507.81;5014097;28;20057;-81
2022/11/04 12:33:58;;;;;;;0.10;0.10;;;;;;;19.52;49.79;99517.38;5003760;28;20042;-81
2022/11/04 12:36:32;;;;;;;1.55;0.10;;;;;;;19.44;50.10;99523.94;5001527;28;20490;-82